createdAt,value
2022-08-08T00:01:06.719Z,74865.94
2022-08-08T00:04:16.243Z,74870.03
2022-08-08T00:06:52.797Z,74874.16
2022-08-08T00:09:39.721Z,74880.31
2022-08-08T00:12:13.440Z,74886.47
2022-08-08T00:14:58.950Z,74894.69
2022-08-08T00:18:03.844Z,74902.91
2022-08-08T00:20:52.560Z,74911.13
2022-08-08T00:24:04.889Z,74909.09
2022-08-08T00:26:38.819Z,74919.34
2022-08-08T00:29:17.504Z,74917.31
2022-08-08T00:32:28.584Z,74917.31
2022-08-08T00:35:18.606Z,74923.47
2022-08-08T00:38:01.280Z,74931.69
2022-08-08T00:41:07.570Z,74939.91
2022-08-08T00:43:40.391Z,74944.00
2022-08-08T00:46:16.246Z,74960.44
2022-08-08T00:48:59.280Z,74952.22
2022-08-08T00:51:38.877Z,74939.91
2022-08-08T00:54:29.160Z,74948.13
2022-08-08T00:57:29.458Z,74948.13
2022-08-08T01:00:14.406Z,74948.13
2022-08-08T01:04:02.425Z,74948.13
2022-08-08T01:07:05.727Z,74954.28
2022-08-08T01:09:54.438Z,74956.34
2022-08-08T01:12:36.251Z,74958.41
2022-08-08T01:15:06.742Z,74960.44
2022-08-08T01:18:02.199Z,74964.56
2022-08-08T01:20:44.259Z,74968.66
2022-08-08T01:24:03.819Z,74993.31
2022-08-08T01:26:49.189Z,74989.22
2022-08-08T01:29:27.970Z,74989.22
2022-08-08T01:32:15.889Z,74989.22
2022-08-08T01:34:53.586Z,74993.31
2022-08-08T01:37:56.263Z,74997.44
2022-08-08T01:40:34.607Z,74995.38
2022-08-08T01:43:11.950Z,75011.81
2022-08-08T01:45:50.430Z,75050.88
2022-08-08T01:48:35.889Z,75036.47
2022-08-08T01:52:04.796Z,75034.41
2022-08-08T01:55:45.198Z,75038.53
2022-08-08T01:58:12.679Z,75028.25
2022-08-08T02:00:48.452Z,75054.97
2022-08-08T02:03:57.430Z,75054.97
2022-08-08T02:06:59.728Z,75063.19
2022-08-08T02:10:03.559Z,75063.19
2022-08-08T02:12:51.336Z,75071.41
2022-08-08T02:15:43.639Z,75075.53
2022-08-08T02:18:21.868Z,75073.47
2022-08-08T02:21:21.114Z,75075.53
2022-08-08T02:23:56.071Z,75079.63
2022-08-08T02:26:34.423Z,75085.78
2022-08-08T02:29:21.114Z,75083.75
2022-08-08T02:32:26.395Z,75083.75
2022-08-08T02:35:08.317Z,75083.75
2022-08-08T02:38:12.636Z,75079.63
2022-08-08T02:42:03.824Z,75091.97
2022-08-08T02:44:56.723Z,75087.84
2022-08-08T02:48:03.462Z,75096.06
2022-08-08T02:50:55.523Z,75085.78
2022-08-08T02:53:26.328Z,75079.63
2022-08-08T02:56:19.996Z,75081.69
2022-08-08T02:59:57.530Z,75083.75
2022-08-08T03:02:50.489Z,75083.75
2022-08-08T03:05:45.355Z,75085.78
2022-08-08T03:08:16.869Z,75091.97
2022-08-08T03:11:13.827Z,75091.97
2022-08-08T03:15:58.108Z,75087.84
2022-08-08T03:17:05.218Z,75083.75
2022-08-08T03:20:11.576Z,75087.84
2022-08-08T03:22:56.333Z,75073.47
2022-08-08T03:25:35.948Z,75073.47
2022-08-08T03:28:07.658Z,75067.28
2022-08-08T03:30:35.358Z,75059.06
2022-08-08T03:33:56.260Z,75059.06
2022-08-08T03:36:09.315Z,75054.97
2022-08-08T03:38:58.299Z,75050.88
2022-08-08T03:42:28.706Z,75038.53
2022-08-08T03:44:20.385Z,75038.53
2022-08-08T03:46:53.985Z,75030.31
2022-08-08T03:49:58.574Z,75026.19
2022-08-08T03:52:13.138Z,75013.88
2022-08-08T03:55:02.119Z,75007.72
2022-08-08T03:58:34.782Z,74997.44
2022-08-08T04:00:20.498Z,74985.09
2022-08-08T04:03:06.313Z,75005.66
2022-08-08T04:05:39.856Z,74997.44
2022-08-08T04:08:33.498Z,74995.38
2022-08-08T04:11:03.004Z,75009.75
2022-08-08T04:14:03.030Z,75005.66
2022-08-08T04:16:40.319Z,74993.31
2022-08-08T04:19:23.882Z,74981.00
2022-08-08T04:21:54.316Z,74948.13
2022-08-08T04:24:30.428Z,74968.66
2022-08-08T04:26:59.411Z,74972.78
2022-08-08T04:29:27.383Z,74960.44
2022-08-08T04:32:00.665Z,74939.91
2022-08-08T04:34:32.068Z,74917.31
2022-08-08T04:37:10.333Z,74911.13
2022-08-08T04:40:03.138Z,74902.91
2022-08-08T04:42:27.271Z,74896.75
2022-08-08T04:44:57.350Z,74923.47
2022-08-08T04:47:24.667Z,74935.78
2022-08-08T04:50:01.392Z,74923.47
2022-08-08T04:52:35.086Z,74915.25
2022-08-08T04:55:04.277Z,74907.03
2022-08-08T04:57:34.337Z,74894.69
2022-08-08T05:00:02.976Z,74886.47
2022-08-08T05:02:31.129Z,74874.16
2022-08-08T05:04:59.988Z,74865.94
2022-08-08T05:07:38.183Z,74849.50
2022-08-08T05:10:12.876Z,74841.28
2022-08-08T05:12:56.517Z,74841.28
2022-08-08T05:16:47.872Z,74833.06
2022-08-08T05:18:17.036Z,74808.41
2022-08-08T05:20:48.664Z,74802.25
2022-08-08T05:23:19.826Z,74791.97
2022-08-08T05:25:49.570Z,74779.66
2022-08-08T05:28:48.312Z,74767.31
2022-08-08T05:31:19.204Z,74750.88
2022-08-08T05:33:51.647Z,74750.88
2022-08-08T05:36:25.271Z,74734.44
2022-08-08T05:38:53.356Z,74726.22
2022-08-08T05:41:23.302Z,74715.94
2022-08-08T05:44:03.535Z,74697.47
2022-08-08T05:46:33.094Z,74693.34
2022-08-08T05:49:00.462Z,74691.28
2022-08-08T05:51:27.963Z,74672.81
2022-08-08T05:54:26.840Z,74656.38
2022-08-08T05:56:56.791Z,74650.22
2022-08-08T06:00:00.467Z,74635.81
2022-08-08T06:02:44.125Z,74623.50
2022-08-08T06:05:35.004Z,74598.84
2022-08-08T06:08:10.453Z,74584.47
2022-08-08T06:10:52.149Z,74565.97
2022-08-08T06:13:22.574Z,74547.47
2022-08-08T06:15:53.796Z,74545.44
2022-08-08T06:18:26.063Z,74545.44
2022-08-08T06:20:56.586Z,74526.94
2022-08-08T06:23:48.547Z,74483.78
2022-08-08T06:26:38.267Z,74455.03
2022-08-08T06:29:25.952Z,74448.88
2022-08-08T06:32:10.806Z,74434.50
2022-08-08T06:34:52.606Z,74434.50
2022-08-08T06:37:36.784Z,74422.16
2022-08-08T06:40:07.204Z,74409.84
2022-08-08T06:42:38.407Z,74409.84
2022-08-08T06:45:06.560Z,74397.50
2022-08-08T06:47:53.965Z,74364.63
2022-08-08T06:50:31.837Z,74356.44
2022-08-08T06:53:09.842Z,74356.44
2022-08-08T06:55:42.136Z,74331.78
2022-08-08T06:58:10.562Z,74315.34
2022-08-08T07:00:40.720Z,74315.34
2022-08-08T07:03:52.780Z,74300.97
2022-08-08T07:06:02.438Z,74292.75
2022-08-08T07:08:38.886Z,74274.25
2022-08-08T07:11:07.759Z,74255.75
2022-08-08T07:14:00.749Z,74233.16
2022-08-08T07:16:37.729Z,74208.50
2022-08-08T07:19:24.642Z,74212.63
2022-08-08T07:22:05.198Z,74204.41
2022-08-08T07:24:53.046Z,74171.53
2022-08-08T07:27:35.292Z,74155.09
2022-08-08T07:30:14.884Z,74159.22
2022-08-08T07:32:47.608Z,74118.13
2022-08-08T07:35:15.955Z,74105.81
2022-08-08T07:37:56.208Z,74105.81
2022-08-08T07:40:33.822Z,74089.38
2022-08-08T07:43:02.642Z,74081.16
2022-08-08T07:45:34.632Z,74077.03
2022-08-08T07:48:18.950Z,74052.41
2022-08-08T07:50:46.926Z,74035.97
2022-08-08T07:53:51.935Z,74019.53
2022-08-08T07:56:07.960Z,73992.81
2022-08-08T07:58:39.036Z,73976.41
2022-08-08T08:01:17.643Z,73964.06
2022-08-08T08:04:16.449Z,73953.78
2022-08-08T08:06:44.405Z,73941.47
2022-08-08T08:09:12.940Z,73937.38
2022-08-08T08:11:52.513Z,73922.97
2022-08-08T08:14:26.429Z,73908.59
2022-08-08T08:16:53.834Z,73890.13
2022-08-08T08:19:22.828Z,73888.06
2022-08-08T08:21:58.265Z,73892.19
2022-08-08T08:24:32.222Z,73886.00
2022-08-08T08:27:02.998Z,73861.38
2022-08-08T08:29:31.363Z,73859.31
2022-08-08T08:31:59.221Z,73838.78
2022-08-08T08:34:32.157Z,73834.66
2022-08-08T08:37:08.152Z,73826.44
2022-08-08T08:40:00.520Z,73812.06
2022-08-08T08:42:31.571Z,73826.44
2022-08-08T08:45:21.136Z,73799.75
2022-08-08T08:47:53.070Z,73787.41
2022-08-08T08:50:33.176Z,73768.94
2022-08-08T08:53:27.415Z,73752.50
2022-08-08T08:55:56.166Z,73742.22
2022-08-08T08:58:41.397Z,73744.28
2022-08-08T09:01:14.844Z,73731.97
2022-08-08T09:03:50.928Z,73723.75
2022-08-08T09:06:28.222Z,73703.22
2022-08-08T09:09:19.179Z,73682.66
2022-08-08T09:12:07.861Z,73653.91
2022-08-08T09:14:35.755Z,73614.88
2022-08-08T09:17:15.856Z,73567.66
2022-08-08T09:21:57.824Z,73489.59
2022-08-08T09:22:39.469Z,73391.03
2022-08-08T09:25:07.834Z,73273.97
2022-08-08T09:27:55.940Z,73161.00
2022-08-08T09:30:26.044Z,73033.69
2022-08-08T09:33:13.086Z,72894.03
2022-08-08T09:35:50.083Z,72742.09
2022-08-08T09:38:31.992Z,72600.41
2022-08-08T09:41:05.162Z,72598.34
2022-08-08T09:43:40.718Z,72532.66
2022-08-08T09:46:25.862Z,72446.41
2022-08-08T09:49:18.674Z,72269.84
2022-08-08T09:52:07.076Z,72310.91
2022-08-08T09:54:45.906Z,72278.06
2022-08-08T09:57:19.138Z,72228.78
2022-08-08T10:00:02.173Z,72103.56
2022-08-08T10:02:42.257Z,72158.97
2022-08-08T10:05:25.339Z,72122.03
2022-08-08T10:07:59.987Z,72130.25
2022-08-08T10:10:38.425Z,72138.47
2022-08-08T10:13:25.967Z,72089.19
2022-08-08T10:16:02.034Z,72144.63
2022-08-08T10:18:35.702Z,72035.81
2022-08-08T10:21:24.936Z,72115.88
2022-08-08T10:23:57.828Z,72097.41
2022-08-08T10:26:52.328Z,72068.66
2022-08-08T10:29:59.303Z,71994.75
2022-08-08T10:32:48.617Z,72037.84
2022-08-08T10:36:21.111Z,72228.78
2022-08-08T10:38:09.272Z,72216.47
2022-08-08T10:40:41.105Z,72074.81
2022-08-08T10:43:09.821Z,72068.66
2022-08-08T10:45:57.176Z,72245.22
2022-08-08T10:48:56.049Z,72146.66
2022-08-08T10:51:24.149Z,72126.13
2022-08-08T10:53:56.421Z,72150.78
2022-08-08T10:56:27.765Z,71978.31
2022-08-08T10:59:00.671Z,71904.41
2022-08-08T11:01:30.198Z,72017.31
2022-08-08T11:04:02.567Z,72007.06
2022-08-08T11:06:34.495Z,72128.19
2022-08-08T11:09:09.621Z,72048.13
2022-08-08T11:12:06.382Z,71998.84
2022-08-08T11:14:31.888Z,72011.16
2022-08-08T11:16:59.122Z,72015.28
2022-08-08T11:19:26.528Z,72048.13
2022-08-08T11:21:56.087Z,72078.91
2022-08-08T11:24:25.754Z,72204.16
2022-08-08T11:26:56.294Z,72204.16
2022-08-08T11:29:29.493Z,72111.75
2022-08-08T11:32:13.518Z,72080.97
2022-08-08T11:35:23.428Z,72097.41
2022-08-08T11:38:35.148Z,72080.97
2022-08-08T11:40:22.489Z,72033.75
2022-08-08T11:42:53.318Z,72033.75
2022-08-08T11:45:21.911Z,72130.25
2022-08-08T11:48:02.809Z,72056.34
2022-08-08T11:50:32.399Z,71949.59
2022-08-08T11:53:05.734Z,71863.38
2022-08-08T11:55:36.635Z,71851.03
2022-08-08T11:58:14.727Z,71988.59
2022-08-08T12:00:53.537Z,71822.31
2022-08-08T12:03:30.612Z,71869.53
2022-08-08T12:05:58.330Z,71953.69
2022-08-08T12:08:37.090Z,72039.91
2022-08-08T12:11:06.451Z,71912.63
2022-08-08T12:14:02.747Z,71865.41
2022-08-08T12:16:30.914Z,71801.78
2022-08-08T12:19:01.764Z,71746.34
2022-08-08T12:24:27.979Z,71810.00
2022-08-08T12:26:58.401Z,71760.72
2022-08-08T12:29:41.049Z,71830.53
2022-08-08T12:32:17.108Z,71863.38
2022-08-08T12:35:13.707Z,71863.38
2022-08-08T12:37:47.966Z,72002.97
2022-08-08T12:40:56.516Z,71812.03
2022-08-08T12:43:47.633Z,71799.72
2022-08-08T12:46:26.304Z,71729.94
2022-08-08T12:51:49.800Z,71875.69
2022-08-08T12:54:25.846Z,72070.72
2022-08-08T12:56:53.461Z,71838.72
2022-08-08T12:59:36.266Z,71881.84
2022-08-08T13:02:04.393Z,71764.81
2022-08-08T13:04:34.974Z,71914.69
2022-08-08T13:07:05.326Z,71896.22
2022-08-08T13:10:00.759Z,71834.63
2022-08-08T13:12:44.382Z,71810.00
2022-08-08T13:15:19.569Z,71736.09
2022-08-08T13:18:09.227Z,71773.03
2022-08-08T13:20:34.388Z,71810.00
2022-08-08T13:23:37.087Z,72044.03
2022-08-08T13:25:50.081Z,71797.66
2022-08-08T13:28:32.495Z,71818.19
2022-08-08T13:31:04.516Z,71840.78
2022-08-08T13:33:41.915Z,71717.63
2022-08-08T13:36:10.901Z,71838.72
2022-08-08T13:38:39.710Z,71734.03
2022-08-08T13:41:07.499Z,71748.41
2022-08-08T13:43:46.429Z,71697.09
2022-08-08T13:46:27.469Z,71756.63
2022-08-08T13:50:33.713Z,71731.97
2022-08-08T13:51:57.602Z,71731.97
2022-08-08T13:54:29.531Z,71762.78
2022-08-08T13:57:00.980Z,71771.00
2022-08-08T13:59:29.143Z,71711.44
2022-08-08T14:02:07.840Z,71744.31
2022-08-08T14:04:52.851Z,71725.81
2022-08-08T14:07:22.550Z,71814.09
2022-08-08T14:10:05.126Z,71810.00
2022-08-08T14:12:43.778Z,71955.75
2022-08-08T14:15:46.485Z,71974.22
2022-08-08T14:18:35.059Z,71918.78
2022-08-08T14:21:20.424Z,71871.56
2022-08-08T14:24:04.366Z,71869.53
2022-08-08T14:26:43.154Z,71875.69
2022-08-08T14:29:28.417Z,71846.94
2022-08-08T14:32:09.213Z,72052.22
2022-08-08T14:34:38.436Z,72027.59
2022-08-08T14:37:08.276Z,71937.25
2022-08-08T14:40:05.680Z,72002.97
2022-08-08T14:42:54.599Z,71970.13
2022-08-08T14:45:33.146Z,71986.53
2022-08-08T14:48:16.221Z,71988.59
2022-08-08T14:50:47.103Z,72078.91
2022-08-08T14:53:15.360Z,72089.19
2022-08-08T14:55:43.345Z,72060.44
2022-08-08T14:58:12.173Z,72039.91
2022-08-08T15:00:44.468Z,72023.50
2022-08-08T15:03:16.047Z,72122.03
2022-08-08T15:05:54.246Z,72251.38
2022-08-08T15:08:35.541Z,72175.41
2022-08-08T15:11:07.478Z,72154.88
2022-08-08T15:14:01.507Z,72175.41
2022-08-08T15:16:29.104Z,72241.09
2022-08-08T15:18:56.442Z,72226.72
2022-08-08T15:21:30.031Z,72226.72
2022-08-08T15:23:58.539Z,72259.59
2022-08-08T15:26:28.964Z,72333.50
2022-08-08T15:28:57.223Z,72372.50
2022-08-08T15:31:55.778Z,72384.81
2022-08-08T15:34:29.759Z,72503.91
2022-08-08T15:36:59.709Z,72495.69
2022-08-08T15:39:38.280Z,72540.88
2022-08-08T15:42:17.640Z,72725.66
2022-08-08T15:45:00.651Z,72857.09
2022-08-08T15:47:29.045Z,72988.50
2022-08-08T15:49:59.821Z,73070.66
2022-08-08T15:52:27.097Z,73130.19
2022-08-08T15:54:54.407Z,73226.72
2022-08-08T15:57:23.064Z,73312.97
2022-08-08T16:00:18.071Z,73349.94
2022-08-08T16:02:44.109Z,73384.84
2022-08-08T16:05:19.734Z,73440.31
2022-08-08T16:07:52.858Z,73464.97
2022-08-08T16:13:14.683Z,73493.72
2022-08-08T16:13:28.553Z,73547.09
2022-08-08T16:16:13.173Z,73582.03
2022-08-08T16:18:56.958Z,73604.63
2022-08-08T16:21:30.076Z,73641.59
2022-08-08T16:23:58.540Z,73662.13
2022-08-08T16:26:34.633Z,73680.63
2022-08-08T16:29:10.674Z,73711.41
2022-08-08T16:31:49.662Z,73748.38
2022-08-08T16:34:20.700Z,73785.38
2022-08-08T16:36:50.460Z,73814.13
2022-08-08T16:40:01.073Z,73838.78
2022-08-08T16:42:06.113Z,73855.19
2022-08-08T16:44:34.493Z,73877.78
2022-08-08T16:47:40.382Z,73900.38
2022-08-08T16:50:15.173Z,73945.59
2022-08-08T16:55:07.217Z,73982.56
2022-08-08T16:55:52.925Z,73959.97
2022-08-08T16:58:26.362Z,73972.28
2022-08-08T17:00:55.093Z,73970.22
2022-08-08T17:03:25.106Z,73964.06
2022-08-08T17:06:23.518Z,73970.22
2022-08-08T17:08:57.600Z,74009.25
2022-08-08T17:11:28.445Z,74023.63
2022-08-08T17:14:17.751Z,74007.22
2022-08-08T17:16:51.877Z,74056.50
2022-08-08T17:19:27.404Z,74089.38
2022-08-08T17:21:56.616Z,74093.47
2022-08-08T17:24:27.683Z,74085.25
2022-08-08T17:26:58.664Z,74070.88
2022-08-08T17:29:56.873Z,74124.28
2022-08-08T17:32:28.908Z,74111.97
2022-08-08T17:35:54.057Z,74093.47
2022-08-08T17:37:51.917Z,74122.25
2022-08-08T17:40:21.172Z,74142.78
2022-08-08T17:42:50.667Z,74128.41
2022-08-08T17:45:23.486Z,74130.44
2022-08-08T17:47:52.187Z,74138.66
2022-08-08T17:50:21.939Z,74167.44
2022-08-08T17:52:50.486Z,74200.28
2022-08-08T17:56:03.927Z,74187.97
2022-08-08T17:58:05.167Z,74200.28
2022-08-08T18:00:32.486Z,74216.72
2022-08-08T18:03:08.493Z,74222.91
2022-08-08T18:05:48.315Z,74216.72
2022-08-08T18:08:24.434Z,74237.28
2022-08-08T18:11:08.349Z,74212.63
2022-08-08T18:13:42.034Z,74220.84
2022-08-08T18:16:11.076Z,74233.16
2022-08-08T18:18:42.893Z,74216.72
2022-08-08T18:21:34.429Z,74231.09
2022-08-08T18:24:02.646Z,74251.66
2022-08-08T18:26:30.088Z,74270.16
2022-08-08T18:28:57.819Z,74261.94
2022-08-08T18:31:27.739Z,74270.16
2022-08-08T18:34:11.924Z,74276.31
2022-08-08T18:36:44.609Z,74270.16
2022-08-08T18:39:16.325Z,74266.03
2022-08-08T18:42:01.129Z,74253.72
2022-08-08T18:44:32.838Z,74255.75
2022-08-08T18:47:02.323Z,74274.25
2022-08-08T18:49:32.725Z,74315.34
2022-08-08T18:52:22.802Z,74296.84
2022-08-08T18:55:00.986Z,74323.56
2022-08-08T18:57:41.682Z,74321.50
2022-08-08T19:00:15.935Z,74331.78
2022-08-08T19:02:55.826Z,74329.72
2022-08-08T19:05:31.737Z,74335.88
2022-08-08T19:08:25.090Z,74327.66
2022-08-08T19:10:57.750Z,74342.03
2022-08-08T19:13:53.387Z,74342.03
2022-08-08T19:16:18.583Z,74344.09
2022-08-08T19:19:00.043Z,74342.03
2022-08-08T19:21:33.558Z,74342.03
2022-08-08T19:24:05.773Z,74342.03
2022-08-08T19:26:37.470Z,74350.25
2022-08-08T19:29:05.493Z,74356.44
2022-08-08T19:31:35.468Z,74356.44
2022-08-08T19:34:36.007Z,74364.63
2022-08-08T19:36:55.183Z,74374.91
2022-08-08T19:39:23.266Z,74376.97
2022-08-08T19:41:51.046Z,74376.97
2022-08-08T19:44:42.981Z,74372.84
2022-08-08T19:47:06.611Z,74376.97
2022-08-08T19:49:37.850Z,74383.13
2022-08-08T19:52:06.440Z,74374.91
2022-08-08T19:54:35.241Z,74379.03
2022-08-08T19:57:07.813Z,74376.97
2022-08-08T19:59:35.824Z,74389.28
2022-08-08T20:02:04.595Z,74393.41
2022-08-08T20:04:33.443Z,74397.50
2022-08-08T20:08:27.039Z,74409.84
2022-08-08T20:09:55.302Z,74426.28
2022-08-08T20:12:32.255Z,74434.50
2022-08-08T20:15:15.034Z,74438.59
2022-08-08T20:17:46.155Z,74450.94
2022-08-08T20:20:19.197Z,74463.25
2022-08-08T20:22:48.788Z,74467.34
2022-08-08T20:25:20.369Z,74483.78
2022-08-08T20:27:50.208Z,74487.91
2022-08-08T20:30:55.938Z,74496.13
2022-08-08T20:33:08.220Z,74496.13
2022-08-08T20:35:58.320Z,74504.34
2022-08-08T20:38:32.707Z,74516.66
2022-08-08T20:41:05.859Z,74516.66
2022-08-08T20:43:49.331Z,74522.84
2022-08-08T20:46:20.701Z,74529.00
2022-08-08T20:48:51.291Z,74537.22
2022-08-08T20:51:20.956Z,74537.22
2022-08-08T20:53:59.035Z,74555.69
2022-08-08T20:56:35.908Z,74561.88
2022-08-08T20:59:09.178Z,74561.88
2022-08-08T21:02:05.672Z,74563.91
2022-08-08T21:04:27.530Z,74576.25
2022-08-08T21:06:55.388Z,74570.09
2022-08-08T21:09:22.779Z,74590.63
2022-08-08T21:11:50.738Z,74590.63
2022-08-08T21:14:33.745Z,74594.75
2022-08-08T21:17:06.306Z,74598.84
2022-08-08T21:19:46.132Z,74605.00
2022-08-08T21:22:15.813Z,74623.50
2022-08-08T21:24:53.780Z,74615.28
2022-08-08T21:27:38.949Z,74621.44
2022-08-08T21:30:19.395Z,74623.50
2022-08-08T21:32:52.342Z,74615.28
2022-08-08T21:36:19.126Z,74631.72
2022-08-08T21:38:17.193Z,74635.81
2022-08-08T21:40:56.055Z,74644.03
2022-08-08T21:43:31.346Z,74648.16
2022-08-08T21:48:20.287Z,74639.94
2022-08-08T21:48:57.387Z,74652.25
2022-08-08T21:52:09.817Z,74644.03
2022-08-08T21:54:53.657Z,74652.25
2022-08-08T21:57:06.132Z,74650.22
2022-08-08T22:00:01.257Z,74664.59
2022-08-08T22:02:23.488Z,74668.69
2022-08-08T22:04:55.904Z,74668.69
2022-08-08T22:07:34.618Z,74668.69
2022-08-08T22:10:18.519Z,74670.75
2022-08-08T22:13:18.040Z,74676.91
2022-08-08T22:15:59.391Z,74687.19
2022-08-08T22:18:29.680Z,74689.25
2022-08-08T22:20:59.637Z,74685.13
2022-08-08T22:23:38.531Z,74693.34
2022-08-08T22:26:27.089Z,74703.63
2022-08-08T22:29:13.589Z,74693.34
2022-08-08T22:31:44.067Z,74689.25
2022-08-08T22:34:32.331Z,74689.25
2022-08-08T22:37:00.249Z,74693.34
2022-08-08T22:39:39.538Z,74689.25
2022-08-08T22:42:26.961Z,74693.34
2022-08-08T22:44:58.569Z,74705.69
2022-08-08T22:47:37.845Z,74697.47
2022-08-08T22:50:21.635Z,74707.72
2022-08-08T22:54:28.169Z,74709.78
2022-08-08T22:55:59.308Z,74718.00
2022-08-08T22:58:31.294Z,74711.84
2022-08-08T23:01:01.646Z,74730.34
2022-08-08T23:03:53.794Z,74720.06
2022-08-08T23:06:23.097Z,74738.56
2022-08-08T23:08:58.154Z,74734.44
2022-08-08T23:11:58.111Z,74734.44
2022-08-08T23:14:18.265Z,74734.44
2022-08-08T23:16:58.012Z,74755.00
2022-08-08T23:19:32.289Z,74750.88
2022-08-08T23:22:04.791Z,74755.00
2022-08-08T23:24:41.496Z,74767.31
2022-08-08T23:27:10.146Z,74804.31
2022-08-08T23:29:37.989Z,74798.13
2022-08-08T23:32:05.856Z,74804.31
2022-08-08T23:34:37.815Z,74794.03
2022-08-08T23:37:05.350Z,74791.97
2022-08-08T23:39:41.905Z,74773.47
2022-08-08T23:42:22.411Z,74771.44
2022-08-08T23:44:50.424Z,74796.09
2022-08-08T23:49:05.196Z,74835.13
2022-08-08T23:50:07.227Z,74845.38
2022-08-08T23:52:41.534Z,74841.28
2022-08-08T23:55:19.442Z,74853.59
2022-08-08T23:57:52.744Z,74853.59
